»·PEaware :: N800DW KRNO-KMFR

N800DW :: KRNO-KMFR

FLIGHT INFORMATION

Flight Status: Arrived
Operator: Privately registered:
United States
More flights under this callsign
Pilot: Scott L. (17677)
Aircraft: PIPER PA-30 TWIN COMANCHE
(PA30)
More flights by this aircraft type
Origin: KRNO Reno/Tahoe Intl
United States
Destination: KMFR Rogue Valley Intl-Medford
United States
More flights between these airports :: More routes between these airports
Route: FITUN V452 LMT V122 LANKS
File this flight plan on PilotEdge
Remarks:
Altitude:
(Current/Filed)
12,000ft
Speed:
(Current/Filed)
2100kts
Departed: 01-Aug-18 05:23 AM
Arrived: 01-Aug-18 06:51 AM
Distance/Time
Traveled:
223nm/1:28
Distance/Time
To Go:
Arrived

Flight Plot

Page will automatically refresh every two minutes.

Flight plan parsing failed; only flown route is shown


Map Options




Map Legend


Flown Route
Filed Route
Departure Airport
Arrival Airport
Navaid (VOR, NDB)
Fix

Horizontal Profiles

Position Reports

Time Latitude Longitude Heading Altitude Ground
Speed
01-Aug-18 05:23 39.556405 -119.787087 341 9828ft 88kts
01-Aug-18 05:24 39.580324 -119.794670 340 10588ft 89kts
01-Aug-18 05:25 39.604695 -119.802684 340 11302ft 91kts
01-Aug-18 05:26 39.629570 -119.810906 340 11974ft 93kts
01-Aug-18 05:27 39.659589 -119.820913 342 12176ft 142kts
01-Aug-18 05:28 39.701770 -119.834820 342 12167ft 166kts
01-Aug-18 05:29 39.746870 -119.849736 342 12165ft 171kts
01-Aug-18 05:30 39.793454 -119.865173 342 12165ft 174kts
01-Aug-18 05:31 39.820979 -119.875419 327 12162ft 171kts
01-Aug-18 05:32 39.862077 -119.906837 326 12165ft 171kts
01-Aug-18 05:33 39.903082 -119.938155 326 12165ft 171kts
01-Aug-18 05:34 39.944124 -119.969533 326 12165ft 171kts
01-Aug-18 05:35 39.985034 -120.000735 326 12165ft 171kts
01-Aug-18 05:36 40.026130 -120.032199 326 12164ft 171kts
01-Aug-18 05:37 40.067259 -120.063772 326 12161ft 171kts
01-Aug-18 05:38 40.107960 -120.095064 326 12152ft 172kts
01-Aug-18 05:39 40.149146 -120.126773 326 12142ft 171kts
01-Aug-18 05:40 40.190122 -120.158367 326 12131ft 171kts
01-Aug-18 05:41 40.231223 -120.190101 326 12123ft 171kts
01-Aug-18 05:42 40.271816 -120.221456 326 12119ft 170kts
01-Aug-18 05:43 40.312745 -120.253177 326 12118ft 171kts
01-Aug-18 05:44 40.353732 -120.284962 326 12117ft 171kts
01-Aug-18 05:45 40.394642 -120.316731 326 12117ft 171kts
01-Aug-18 05:46 40.435612 -120.348590 326 12118ft 171kts
01-Aug-18 05:47 40.476626 -120.380531 326 12118ft 171kts
01-Aug-18 05:48 40.517638 -120.412516 326 12118ft 171kts
01-Aug-18 05:49 40.558482 -120.444415 326 12118ft 171kts
01-Aug-18 05:50 40.599530 -120.476520 326 12118ft 171kts
01-Aug-18 05:51 40.640374 -120.508511 326 12118ft 171kts
01-Aug-18 05:52 40.681381 -120.540677 326 12118ft 171kts
01-Aug-18 05:53 40.722217 -120.572755 326 12118ft 171kts
01-Aug-18 05:54 40.763273 -120.605052 326 12118ft 171kts
01-Aug-18 05:55 40.804110 -120.637224 326 12118ft 171kts
01-Aug-18 05:56 40.844928 -120.669426 325 12124ft 171kts
01-Aug-18 05:57 40.885914 -120.701808 325 12128ft 171kts
01-Aug-18 05:58 40.926767 -120.734133 325 12133ft 171kts
01-Aug-18 05:59 40.967681 -120.766550 325 12138ft 171kts
01-Aug-18 06:00 41.008485 -120.798914 324 12138ft 172kts
01-Aug-18 06:01 41.049525 -120.831527 324 12138ft 172kts
01-Aug-18 06:02 41.090556 -120.864183 323 12139ft 172kts
01-Aug-18 06:03 41.130558 -120.896071 323 12135ft 172kts
01-Aug-18 06:04 41.171611 -120.928858 323 12135ft 172kts
01-Aug-18 06:05 41.212364 -120.961439 323 12136ft 172kts
01-Aug-18 06:06 41.246485 -120.988752 323 12136ft 172kts
01-Aug-18 06:20 41.824204 -121.456086 323 12162ft 172kts
01-Aug-18 06:21 41.865010 -121.489460 323 12167ft 172kts
01-Aug-18 06:22 41.905808 -121.522878 323 12172ft 172kts
01-Aug-18 06:23 41.946618 -121.556356 323 12176ft 172kts
01-Aug-18 06:24 41.987289 -121.589772 323 12181ft 172kts
01-Aug-18 06:25 42.027991 -121.623264 323 12185ft 172kts
01-Aug-18 06:26 42.068805 -121.656898 322 12192ft 172kts
01-Aug-18 06:27 42.109065 -121.690125 322 12194ft 172kts
01-Aug-18 06:28 42.149508 -121.724172 309 12188ft 168kts
01-Aug-18 06:29 42.166300 -121.779471 283 12202ft 160kts
01-Aug-18 06:30 42.180412 -121.836341 283 12207ft 160kts
01-Aug-18 06:31 42.194304 -121.893184 282 12211ft 159kts
01-Aug-18 06:32 42.208277 -121.950663 283 12151ft 161kts
01-Aug-18 06:33 42.222193 -122.008002 282 12153ft 160kts
01-Aug-18 06:34 42.235586 -122.063042 281 12370ft 132kts
01-Aug-18 06:35 42.247274 -122.111931 283 11412ft 139kts
01-Aug-18 06:36 42.259112 -122.161141 284 10510ft 137kts
01-Aug-18 06:37 42.270702 -122.209302 285 9644ft 133kts
01-Aug-18 06:38 42.281548 -122.255585 285 9099ft 110kts
01-Aug-18 06:39 42.290135 -122.291442 286 9136ft 119kts
01-Aug-18 06:40 42.301987 -122.341494 286 9140ft 151kts
01-Aug-18 06:41 42.315110 -122.396676 287 9129ft 156kts
01-Aug-18 06:42 42.328433 -122.452727 286 9124ft 157kts
01-Aug-18 06:43 42.342337 -122.511500 287 8715ft 170kts
01-Aug-18 06:44 42.356859 -122.572947 287 8283ft 172kts
01-Aug-18 06:45 42.367092 -122.635577 273 7790ft 175kts
01-Aug-18 06:46 42.364889 -122.697032 246 6213ft 165kts
01-Aug-18 06:47 42.341365 -122.749687 239 4704ft 163kts
01-Aug-18 06:48 42.322391 -122.791757 242 3188ft 113kts
01-Aug-18 06:49 42.315810 -122.827664 306 2420ft 107kts
01-Aug-18 06:50 42.336630 -122.852923 335 1839ft 99kts
01-Aug-18 06:51 42.362168 -122.866508 339 1397ft 98kts
01-Aug-18 06:52 42.372156 -122.873514 202 1317ft 16kts
01-Aug-18 06:53 42.371434 -122.876555 288 1317ft 0kts
01-Aug-18 06:54 42.371434 -122.876555 288 1317ft 0kts
01-Aug-18 06:55 42.371434 -122.876555 288 1317ft 0kts
01-Aug-18 06:56 42.371434 -122.876555 288 1317ft 0kts
01-Aug-18 06:57 42.371434 -122.876555 288 1317ft 0kts
01-Aug-18 06:58 42.371434 -122.876555 288 1317ft 0kts
01-Aug-18 06:59 42.371434 -122.876555 288 1317ft 0kts
01-Aug-18 07:00 42.371434 -122.876555 288 1317ft 0kts
01-Aug-18 07:01 42.371434 -122.876555 288 1317ft 0kts
01-Aug-18 07:02 42.371434 -122.876555 288 1317ft 0kts
01-Aug-18 07:03 42.371434 -122.876555 288 1317ft 0kts
01-Aug-18 07:04 42.371434 -122.876555 288 1317ft 0kts
01-Aug-18 07:05 42.371434 -122.876555 288 1317ft 0kts
01-Aug-18 07:06 42.371434 -122.876555 288 1317ft 0kts

Navigation Log

Ident Type
Flight plan parsing failed, navigation log unavailable